• Join FlightAware (Why Join?)
  • Login
  • US Flag 
12:33AM EDT


 

Airport Tracker/Info


-or-


 

Live Flight TrackerFlight Track Log ✈ SKW5550 ✈ 15-Jan-2014 ✈ KCOD - KDEN

Flight Track Log - Related Links

Times and Time Zones

All times are in EST time to prevent confusion due to time zone crossing. See the SKW5550 flight status page for this flight to view local times or setup timezone preferences in your user account.

Time Position Orientation Groundspeed Altitude Reporting Facility
EST Latitude Longitude Course Direction KTS MPH feet Rate Location/Type
08:51AM 44.5056 -109.0506 158° South 133 153 6,300  Level Salt Lake Center
08:52AM 44.4514 -109.0344 168° South 294 338 8,200 1,920 Climbing Salt Lake Center
08:53AM 44.3227 -108.8222 157° South  Level Estimated
08:53AM 44.4731 -108.9489 70° East 287 330 10,200  Level Salt Lake Center
08:54AM 44.2117 -108.7506 155° Southeast  Level FlightAware Approximate
08:54AM 44.5400 -108.9283 12° North 289 333 13,100  Level Salt Lake Center
08:55AM 44.1130 -108.6500 157° South  Level Estimated
08:55AM 44.4928 -108.8381 126° Southeast 321 369 15,400  Level Salt Lake Center
08:56AM 43.9994 -108.5874 158° South  Level FlightAware Approximate
08:56AM 44.3942 -108.8300 177° South 357 411 17,600  Level Salt Lake Center
08:57AM 44.2964 -108.7764 159° South 375 432 19,100 1,380 Climbing Salt Lake Center
08:58AM 44.1972 -108.7217 158° South 382 440 20,500 1,500 Climbing Salt Lake Center
08:59AM 44.0764 -108.6514 157° South 389 448 22,200 1,380 Climbing Salt Lake Center
09:00AM 43.9742 -108.5931 158° South 397 457 23,400 1,260 Climbing Salt Lake Center
09:01AM 43.8692 -108.5336 158° South 406 467 24,800 1,140 Climbing Salt Lake Center
09:02AM 43.7703 -108.4436 147° Southeast 431 496 25,800 960 Climbing Salt Lake Center
09:03AM 43.6731 -108.3486 145° Southeast 431 496 26,800 960 Climbing Salt Lake Center
09:04AM 43.5731 -108.2489 144° Southeast 443 510 27,800 960 Climbing Salt Lake Center
09:05AM 43.4717 -108.1506 145° Southeast 447 514 28,800 960 Climbing Salt Lake Center
09:06AM 43.3706 -108.0497 144° Southeast 450 518 29,800 960 Climbing Salt Lake Center
09:07AM 43.2683 -107.9503 145° Southeast 452 520 30,800 540 Climbing Salt Lake Center
09:08AM 43.1647 -107.8494 145° Southeast 457 526 31,000 60 Climbing Salt Lake Center
09:09AM 43.0556 -107.7453 145° Southeast 476 548 31,000  Level Salt Lake Center
09:10AM 42.9253 -107.6178 144° Southeast 495 570 31,000  Level Salt Lake Center
09:11AM 42.8164 -107.5117 144° Southeast 500 575 31,000  Level Salt Lake Center
09:12AM 42.7039 -107.4053 145° Southeast 509 586 31,000  Level Salt Lake Center
09:13AM 42.5742 -107.2803 145° Southeast 512 589 31,000  Level Salt Lake Center
09:14AM 42.4622 -107.1736 145° Southeast 513 590 31,000  Level Salt Lake Center
09:15AM 42.3494 -107.0653 145° Southeast 516 594 31,000  Level Salt Lake Center
09:16AM 42.2175 -106.9392 145° Southeast 519 597 31,000  Level Salt Lake Center
09:17AM 42.1061 -106.8322 145° Southeast 515 593 31,000  Level Salt Lake Center
09:18AM 41.9950 -106.7269 145° Southeast 511 588 31,000  Level Salt Lake Center
09:20AM 41.8714 -106.6111 145° Southeast 512 589 31,000  Level Salt Lake Center
09:21AM 41.7619 -106.5067 145° Southeast 508 585 31,000  Level Salt Lake Center
09:22AM 41.6325 -106.3850 145° Southeast 509 586 31,000  Level Salt Lake Center
09:23AM 41.4644 -106.2275 145° Southeast 512 589 31,000  Level Denver Center
09:24AM 41.3544 -106.1264 145° Southeast 505 581 31,000 -180 Level Denver Center
09:25AM 41.2239 -106.0050 145° Southeast 511 588 30,700 -1,020 Descending Denver Center
09:26AM 41.1119 -105.9028 145° Southeast 512 589 29,000 -1,680 Descending Denver Center
09:27AM 41.0078 -105.8072 145° Southeast 504 580 27,400 -1,800 Descending Denver Center
09:28AM 40.8714 -105.6836 146° Southeast 499 574 25,400 -1,860 Descending Denver Center
09:29AM 40.7603 -105.5825 145° Southeast 489 563 23,700 -1,560 Descending Denver Center
09:30AM 40.6533 -105.4847 145° Southeast 475 547 22,300 -1,500 Descending Denver Center
09:31AM 40.5750 -105.3794 134° Southeast 414 476 20,700 -1,560 Descending Denver Center
09:32AM 40.5092 -105.2675 128° Southeast 389 448 19,200 -1,560 Descending Denver Center
09:33AM 40.4656 -105.1383 114° Southeast 370 426 17,600 -1,560 Descending Denver Center
09:34AM 40.4319 -105.0222 111° Southeast 343 395 16,100 -1,380 Descending Denver Center
09:35AM 40.4008 -104.9128 110° East 325 374 14,900 -1,140 Descending Denver Center
09:36AM 40.3547 -104.8308 126° Southeast 292 336 13,800 -1,260 Descending Denver Center
09:37AM 40.2800 -104.7803 153° Southeast 301 346 12,400 -1,380 Descending Denver Center
09:38AM 40.2019 -104.7256 152° Southeast 295 339 11,000 -1,320 Descending Denver Center
09:39AM 40.1261 -104.6939 162° South 285 328 9,800 -1,260 Descending Denver Center
09:40AM 40.0536 -104.6944 180° South 262 302 8,500 -1,020 Descending Denver Center
09:41AM 39.9939 -104.6956 181° South 211 243 7,800 -1,020 Descending Denver Center
09:42AM 39.9481 -104.6956 180° South 170 196 6,500 -1,140 Descending Denver Center
09:43AM 39.9050 -104.6958 180° South 148 170 5,600 -540 Descending Denver Center
09:44AM 39.8753 -104.6961 180° South 117 135 5,400 -240 Descending Denver Center